createdAt,value
2018-03-03T00:00:39.774Z,111.50
2018-03-03T00:03:10.184Z,108.27
2018-03-03T00:05:40.116Z,106.73
2018-03-03T00:08:10.312Z,97.63
2018-03-03T00:10:40.926Z,104.73
2018-03-03T00:13:11.001Z,107.80
2018-03-03T00:15:42.133Z,107.80
2018-03-03T00:18:12.855Z,108.73
2018-03-03T00:20:43.498Z,107.23
2018-03-03T00:23:13.793Z,98.63
2018-03-03T00:25:44.803Z,105.10
2018-03-03T00:28:15.502Z,106.20
2018-03-03T00:30:46.231Z,107.67
2018-03-03T00:33:17.332Z,104.73
2018-03-03T00:35:48.097Z,85.90
2018-03-03T00:38:18.612Z,96.43
2018-03-03T00:40:49.297Z,92.77
2018-03-03T00:43:19.668Z,93.70
2018-03-03T00:45:50.308Z,88.27
2018-03-03T00:48:20.536Z,90.03
2018-03-03T00:50:51.372Z,79.30
2018-03-03T00:53:22.321Z,75.07
2018-03-03T00:55:52.839Z,64.93
2018-03-03T00:58:23.480Z,71.70
2018-03-03T01:00:54.887Z,69.23
2018-03-03T01:03:25.921Z,72.43
2018-03-03T01:05:56.689Z,72.13
2018-03-03T01:08:27.232Z,71.77
2018-03-03T01:10:57.925Z,68.77
2018-03-03T01:13:28.752Z,71.93
2018-03-03T01:15:59.665Z,70.30
2018-03-03T01:18:30.393Z,66.83
2018-03-03T01:21:01.402Z,71.37
2018-03-03T01:23:32.513Z,72.93
2018-03-03T01:26:02.370Z,70.77
2018-03-03T01:28:32.509Z,69.80
2018-03-03T01:31:02.895Z,70.83
2018-03-03T01:33:33.909Z,71.83
2018-03-03T01:36:04.602Z,69.23
2018-03-03T01:38:35.286Z,68.00
2018-03-03T01:41:05.646Z,70.47
2018-03-03T01:43:36.298Z,70.87
2018-03-03T01:46:07.047Z,71.20
2018-03-03T01:48:37.549Z,73.87
2018-03-03T01:51:08.844Z,75.10
2018-03-03T01:53:39.544Z,73.00
2018-03-03T01:56:10.434Z,74.73
2018-03-03T01:58:40.796Z,75.00
2018-03-03T02:01:10.812Z,78.33
2018-03-03T02:03:41.832Z,74.50
2018-03-03T02:06:12.580Z,77.27
2018-03-03T02:08:43.279Z,73.20
2018-03-03T02:11:14.168Z,75.43
2018-03-03T02:13:44.896Z,77.00
2018-03-03T02:16:15.716Z,79.40
2018-03-03T02:18:46.238Z,79.53
2018-03-03T02:21:16.512Z,82.23
2018-03-03T02:23:47.104Z,74.17
2018-03-03T02:26:17.617Z,69.90
2018-03-03T02:28:48.140Z,86.27
2018-03-03T02:31:18.846Z,84.73
2018-03-03T02:33:49.750Z,86.80
2018-03-03T02:36:19.956Z,89.17
2018-03-03T02:38:50.386Z,89.00
2018-03-03T02:41:20.886Z,92.03
2018-03-03T02:43:51.778Z,88.60
2018-03-03T02:46:23.174Z,88.70
2018-03-03T02:48:54.188Z,89.13
2018-03-03T02:51:24.780Z,84.50
2018-03-03T02:53:55.689Z,79.63
2018-03-03T02:56:26.446Z,79.53
2018-03-03T02:58:57.185Z,81.97
2018-03-03T03:01:27.803Z,79.80
2018-03-03T03:03:58.768Z,83.20
2018-03-03T03:06:29.169Z,84.27
2018-03-03T03:09:00.315Z,84.10
2018-03-03T03:11:31.038Z,83.60
2018-03-03T03:14:01.409Z,89.00
2018-03-03T03:16:31.254Z,86.50
2018-03-03T03:19:01.990Z,83.17
2018-03-03T03:21:32.679Z,85.63
2018-03-03T03:24:03.941Z,77.33
2018-03-03T03:26:34.745Z,64.17
2018-03-03T03:29:05.489Z,72.00
2018-03-03T03:31:35.799Z,51.03
2018-03-03T03:34:06.432Z,60.53
2018-03-03T03:36:37.922Z,51.07
2018-03-03T03:39:09.075Z,74.87
2018-03-03T03:41:39.456Z,71.97
2018-03-03T03:44:10.355Z,72.60
2018-03-03T03:46:41.011Z,70.27
2018-03-03T03:49:11.742Z,76.87
2018-03-03T03:51:42.278Z,83.07
2018-03-03T03:54:12.404Z,75.80
2018-03-03T03:56:44.186Z,74.53
2018-03-03T03:59:14.493Z,79.30
2018-03-03T04:01:44.503Z,86.17
2018-03-03T04:04:15.181Z,86.17
2018-03-03T04:06:45.659Z,79.17
2018-03-03T04:09:16.893Z,84.57
2018-03-03T04:11:46.826Z,80.27
2018-03-03T04:14:17.352Z,78.20
2018-03-03T04:16:48.675Z,63.60
2018-03-03T04:19:19.340Z,71.47
2018-03-03T04:21:50.355Z,73.90
2018-03-03T04:24:21.763Z,74.60
2018-03-03T04:26:51.842Z,77.97
2018-03-03T04:29:22.554Z,76.20
2018-03-03T04:31:52.610Z,72.40
2018-03-03T04:34:23.035Z,74.70
2018-03-03T04:36:53.654Z,73.93
2018-03-03T04:39:24.184Z,64.40
2018-03-03T04:41:54.743Z,72.00
2018-03-03T04:44:25.639Z,75.57
2018-03-03T04:46:55.848Z,72.40
2018-03-03T04:49:26.365Z,71.53
2018-03-03T04:51:57.598Z,72.03
2018-03-03T04:54:28.276Z,70.83
2018-03-03T04:56:58.279Z,70.87
2018-03-03T04:59:44.979Z,72.53
2018-03-03T05:02:30.939Z,69.23
2018-03-03T05:05:07.173Z,67.70
2018-03-03T05:07:53.358Z,64.40
2018-03-03T05:10:38.603Z,62.53
2018-03-03T05:13:15.012Z,67.97
2018-03-03T05:15:50.257Z,66.30
2018-03-03T05:18:26.921Z,61.27
2018-03-03T05:21:03.498Z,62.87
2018-03-03T05:23:39.780Z,60.50
2018-03-03T05:26:27.168Z,44.20
2018-03-03T05:29:03.655Z,51.90
2018-03-03T05:31:40.331Z,65.00
2018-03-03T05:34:16.855Z,63.30
2018-03-03T05:37:02.920Z,57.87
2018-03-03T05:39:36.556Z,60.23
2018-03-03T05:42:19.509Z,61.70
2018-03-03T05:45:08.153Z,53.03
2018-03-03T05:47:54.760Z,52.77
2018-03-03T05:50:42.393Z,53.07
2018-03-03T05:53:28.991Z,55.17
2018-03-03T05:56:04.338Z,57.20
2018-03-03T05:58:39.584Z,55.93
2018-03-03T06:01:12.976Z,55.67
2018-03-03T06:03:51.397Z,56.80
2018-03-03T06:06:27.034Z,55.83
2018-03-03T06:09:07.700Z,55.87
2018-03-03T06:11:37.627Z,55.00
2018-03-03T06:14:07.534Z,56.37
2018-03-03T06:16:37.339Z,56.17
2018-03-03T06:19:07.060Z,56.00
2018-03-03T06:21:36.785Z,51.27
2018-03-03T06:24:06.607Z,51.43
2018-03-03T06:26:36.335Z,51.53
2018-03-03T06:29:06.056Z,53.70
2018-03-03T06:31:35.812Z,56.27
2018-03-03T06:34:05.627Z,53.27
2018-03-03T06:36:35.540Z,57.27
2018-03-03T06:39:05.474Z,54.10
2018-03-03T06:41:35.473Z,57.03
2018-03-03T06:44:05.506Z,72.30
2018-03-03T06:46:35.258Z,82.20
2018-03-03T06:49:05.012Z,84.40
2018-03-03T06:51:34.923Z,86.90
2018-03-03T06:54:04.820Z,98.60
2018-03-03T06:56:34.648Z,108.57
2018-03-03T06:59:04.467Z,112.47
2018-03-03T07:01:34.274Z,117.77
2018-03-03T07:04:04.104Z,108.77
2018-03-03T07:06:34.104Z,130.00
2018-03-03T07:09:04.018Z,121.13
2018-03-03T07:11:34.549Z,123.10
2018-03-03T07:14:04.365Z,117.27
2018-03-03T07:16:34.283Z,106.90
2018-03-03T07:19:04.088Z,119.33
2018-03-03T07:21:33.900Z,112.33
2018-03-03T07:24:03.723Z,116.87
2018-03-03T07:26:33.523Z,120.77
2018-03-03T07:29:03.343Z,118.70
2018-03-03T07:31:33.251Z,120.87
2018-03-03T07:34:03.065Z,103.53
2018-03-03T07:36:32.878Z,121.33
2018-03-03T07:39:02.694Z,116.77
2018-03-03T07:41:32.474Z,115.50
2018-03-03T07:44:02.312Z,111.80
2018-03-03T07:46:32.125Z,115.10
2018-03-03T07:49:01.944Z,105.07
2018-03-03T07:51:31.750Z,111.53
2018-03-03T07:54:01.561Z,109.57
2018-03-03T07:56:43.156Z,106.07
2018-03-03T07:59:12.965Z,105.50
2018-03-03T08:01:42.781Z,103.93
2018-03-03T08:04:12.589Z,101.30
2018-03-03T08:06:42.503Z,88.13
2018-03-03T08:09:12.256Z,80.93
2018-03-03T08:11:42.135Z,79.60
2018-03-03T08:14:11.939Z,85.20
2018-03-03T08:16:41.753Z,77.97
2018-03-03T08:19:11.568Z,84.43
2018-03-03T08:21:41.379Z,90.37
2018-03-03T08:24:11.133Z,85.23
2018-03-03T08:26:40.804Z,81.17
2018-03-03T08:29:10.616Z,89.10
2018-03-03T08:31:40.362Z,83.30
2018-03-03T08:34:10.062Z,84.90
2018-03-03T08:36:39.837Z,93.80
2018-03-03T08:39:09.558Z,104.72
2018-03-03T08:41:39.375Z,96.80
2018-03-03T08:44:09.095Z,108.23
2018-03-03T08:46:38.795Z,98.97
2018-03-03T08:49:08.604Z,83.60
2018-03-03T08:51:38.517Z,89.20
2018-03-03T08:54:08.326Z,92.50
2018-03-03T08:56:38.139Z,93.63
2018-03-03T08:59:07.951Z,76.33
2018-03-03T09:01:37.765Z,74.40
2018-03-03T09:04:07.573Z,79.83
2018-03-03T09:06:37.344Z,84.20
2018-03-03T09:09:07.200Z,82.43
2018-03-03T09:11:37.012Z,78.00
2018-03-03T09:14:06.931Z,79.80
2018-03-03T09:16:36.848Z,80.27
2018-03-03T09:19:06.653Z,80.33
2018-03-03T09:21:36.472Z,81.30
2018-03-03T09:24:06.195Z,81.37
2018-03-03T09:26:36.103Z,84.30
2018-03-03T09:29:06.007Z,77.70
2018-03-03T09:31:35.828Z,80.10
2018-03-03T09:34:05.836Z,80.60
2018-03-03T09:36:35.656Z,76.87
2018-03-03T09:39:05.665Z,75.03
2018-03-03T09:41:35.442Z,80.20
2018-03-03T09:44:05.291Z,80.93
2018-03-03T09:46:35.107Z,75.13
2018-03-03T09:49:04.915Z,76.47
2018-03-03T09:51:34.734Z,80.40
2018-03-03T09:54:04.544Z,71.17
2018-03-03T09:56:34.453Z,79.70
2018-03-03T09:59:04.145Z,80.10
2018-03-03T10:01:33.986Z,82.63
2018-03-03T10:04:03.636Z,83.50
2018-03-03T10:06:33.400Z,85.60
2018-03-03T10:09:03.194Z,89.80
2018-03-03T10:11:32.965Z,91.47
2018-03-03T10:14:02.738Z,93.10
2018-03-03T10:16:32.485Z,98.70
2018-03-03T10:19:02.210Z,98.10
2018-03-03T10:21:32.670Z,106.70
2018-03-03T10:24:02.492Z,106.47
2018-03-03T10:26:32.203Z,113.03
2018-03-03T10:29:01.978Z,114.23
2018-03-03T10:31:31.795Z,90.73
2018-03-03T10:34:01.605Z,98.23
2018-03-03T10:36:31.345Z,99.20
2018-03-03T10:39:01.167Z,96.10
2018-03-03T10:41:30.960Z,96.40
2018-03-03T10:44:00.742Z,95.83
2018-03-03T10:46:30.502Z,103.77
2018-03-03T10:49:00.280Z,106.23
2018-03-03T10:51:30.030Z,97.23
2018-03-03T10:53:59.814Z,95.60
2018-03-03T10:56:29.551Z,80.60
2018-03-03T10:58:59.296Z,77.87
2018-03-03T11:01:29.019Z,79.50
2018-03-03T11:03:58.795Z,86.13
2018-03-03T11:06:28.552Z,89.77
2018-03-03T11:08:58.246Z,94.97
2018-03-03T11:11:27.974Z,90.40
2018-03-03T11:13:57.745Z,93.47
2018-03-03T11:16:27.473Z,85.97
2018-03-03T11:18:57.218Z,87.37
2018-03-03T11:21:26.947Z,92.20
2018-03-03T11:23:56.661Z,89.50
2018-03-03T11:26:26.419Z,82.57
2018-03-03T11:28:56.127Z,83.00
2018-03-03T11:31:25.844Z,81.57
2018-03-03T11:33:55.600Z,78.23
2018-03-03T11:36:25.329Z,75.33
2018-03-03T11:38:55.099Z,79.07
2018-03-03T11:41:24.819Z,79.33
2018-03-03T11:43:54.551Z,86.80
2018-03-03T11:46:24.311Z,89.00
2018-03-03T11:48:54.048Z,79.10
2018-03-03T11:51:23.743Z,79.23
2018-03-03T11:53:53.516Z,77.63
2018-03-03T11:56:23.239Z,70.73
2018-03-03T11:58:53.006Z,74.60
2018-03-03T12:01:22.720Z,86.30
2018-03-03T12:03:52.483Z,85.17
2018-03-03T12:06:22.351Z,78.17
2018-03-03T12:08:52.072Z,86.60
2018-03-03T12:11:21.809Z,80.03
2018-03-03T12:13:51.648Z,84.50
2018-03-03T12:16:21.399Z,95.87
2018-03-03T12:18:51.251Z,93.37
2018-03-03T12:21:20.986Z,84.53
2018-03-03T12:23:50.726Z,97.10
2018-03-03T12:26:20.509Z,96.60
2018-03-03T12:28:50.248Z,91.83
2018-03-03T12:31:20.025Z,92.43
2018-03-03T12:33:49.764Z,87.00
2018-03-03T12:36:19.506Z,87.23
2018-03-03T12:38:49.276Z,88.77
2018-03-03T12:41:19.080Z,83.07
2018-03-03T12:43:48.925Z,85.63
2018-03-03T12:46:18.645Z,86.80
2018-03-03T12:48:48.338Z,85.73
2018-03-03T12:51:18.146Z,83.20
2018-03-03T12:53:47.878Z,80.50
2018-03-03T12:56:17.586Z,76.67
2018-03-03T12:58:47.392Z,77.00
2018-03-03T13:01:17.148Z,87.83
2018-03-03T13:03:46.928Z,80.67
2018-03-03T13:06:16.637Z,90.47
2018-03-03T13:08:46.349Z,87.67
2018-03-03T13:11:16.147Z,90.43
2018-03-03T13:13:45.849Z,94.73
2018-03-03T13:16:15.579Z,101.70
2018-03-03T13:18:45.338Z,103.50
2018-03-03T13:21:15.080Z,108.77
2018-03-03T13:23:44.856Z,102.57
2018-03-03T13:26:14.668Z,102.97
2018-03-03T13:28:44.374Z,102.63
2018-03-03T13:31:14.164Z,101.83
2018-03-03T13:33:43.891Z,100.07
2018-03-03T13:36:13.638Z,99.03
2018-03-03T13:38:43.368Z,91.83
2018-03-03T13:41:13.116Z,86.50
2018-03-03T13:43:42.884Z,84.13
2018-03-03T13:46:12.577Z,75.47
2018-03-03T13:48:42.329Z,72.47
2018-03-03T13:51:12.168Z,73.13
2018-03-03T13:53:45.230Z,71.30
2018-03-03T13:56:20.728Z,69.13
2018-03-03T13:58:52.510Z,66.40
2018-03-03T14:01:24.263Z,67.57
2018-03-03T14:03:54.633Z,62.23
2018-03-03T14:06:25.140Z,60.37
2018-03-03T14:08:58.191Z,57.17
2018-03-03T14:11:31.239Z,51.27
2018-03-03T14:14:03.528Z,49.67
2018-03-03T14:16:34.128Z,47.70
2018-03-03T14:19:04.623Z,49.57
2018-03-03T14:21:36.459Z,42.80
2018-03-03T14:24:12.865Z,42.60
2018-03-03T14:26:47.198Z,41.23
2018-03-03T14:29:17.619Z,42.27
2018-03-03T14:31:49.661Z,50.23
2018-03-03T14:34:25.558Z,52.50
2018-03-03T14:36:59.516Z,54.10
2018-03-03T14:39:30.763Z,55.57
2018-03-03T14:42:02.269Z,55.77
2018-03-03T14:44:35.571Z,53.77
2018-03-03T14:47:07.925Z,54.23
2018-03-03T14:49:37.806Z,58.20
2018-03-03T14:52:07.602Z,63.57
2018-03-03T14:54:37.376Z,75.93
2018-03-03T14:57:07.217Z,80.27
2018-03-03T14:59:36.999Z,79.60
2018-03-03T15:02:06.877Z,80.00
2018-03-03T15:04:36.686Z,81.00
2018-03-03T15:07:06.444Z,86.00
2018-03-03T15:09:37.144Z,86.50
2018-03-03T15:12:06.911Z,84.20
2018-03-03T15:14:36.840Z,76.07
2018-03-03T15:17:06.633Z,65.80
2018-03-03T15:19:36.440Z,64.80
2018-03-03T15:22:06.278Z,69.67
2018-03-03T15:24:36.140Z,68.07
2018-03-03T15:27:06.293Z,64.50
2018-03-03T15:29:36.071Z,68.53
2018-03-03T15:32:05.873Z,60.73
2018-03-03T15:34:35.751Z,51.93
2018-03-03T15:37:06.065Z,56.47
2018-03-03T15:39:36.434Z,52.27
2018-03-03T15:42:06.837Z,59.97
2018-03-03T15:44:38.174Z,55.97
2018-03-03T15:47:08.476Z,55.00
2018-03-03T15:49:38.551Z,57.07
2018-03-03T15:52:08.888Z,64.80
2018-03-03T15:54:39.122Z,60.00
2018-03-03T15:57:09.361Z,60.60
2018-03-03T15:59:39.598Z,58.43
2018-03-03T16:02:09.921Z,56.63
2018-03-03T16:04:40.182Z,57.10
2018-03-03T16:07:10.480Z,57.07
2018-03-03T16:09:40.301Z,57.77
2018-03-03T16:12:10.200Z,54.73
2018-03-03T16:14:40.014Z,57.57
2018-03-03T16:17:09.737Z,62.23
2018-03-03T16:19:39.549Z,60.00
2018-03-03T16:22:09.387Z,61.77
2018-03-03T16:24:39.200Z,60.57
2018-03-03T16:27:08.895Z,59.63
2018-03-03T16:29:38.724Z,59.77
2018-03-03T16:32:08.518Z,65.37
2018-03-03T16:34:38.296Z,76.53
2018-03-03T16:37:08.181Z,76.77
2018-03-03T16:39:37.964Z,76.70
2018-03-03T16:42:07.936Z,81.87
2018-03-03T16:44:37.784Z,83.70
2018-03-03T16:47:07.562Z,83.07
2018-03-03T16:49:37.365Z,82.13
2018-03-03T16:52:07.125Z,88.73
2018-03-03T16:54:36.919Z,94.37
2018-03-03T16:57:06.750Z,95.93
2018-03-03T16:59:36.506Z,91.90
2018-03-03T17:02:06.330Z,95.03
2018-03-03T17:04:36.088Z,90.63
2018-03-03T17:07:05.801Z,88.47
2018-03-03T17:09:35.592Z,87.80
2018-03-03T17:12:05.401Z,94.67
2018-03-03T17:14:35.233Z,90.93
2018-03-03T17:17:05.071Z,85.30
2018-03-03T17:19:34.858Z,85.93
2018-03-03T17:22:04.835Z,80.90
2018-03-03T17:24:34.620Z,75.03
2018-03-03T17:27:04.351Z,75.43
2018-03-03T17:29:34.135Z,76.70
2018-03-03T17:32:03.936Z,79.57
2018-03-03T17:34:33.746Z,75.87
2018-03-03T17:37:03.466Z,76.77
2018-03-03T17:39:33.207Z,69.70
2018-03-03T17:42:03.102Z,66.97
2018-03-03T17:44:32.838Z,67.10
2018-03-03T17:47:02.510Z,64.03
2018-03-03T17:49:32.306Z,69.30
2018-03-03T17:52:02.114Z,68.00
2018-03-03T17:54:31.923Z,68.90
2018-03-03T17:57:01.650Z,67.20
2018-03-03T17:59:31.447Z,71.37
2018-03-03T18:02:01.264Z,66.80
2018-03-03T18:04:31.053Z,65.70
2018-03-03T18:07:00.810Z,66.43
2018-03-03T18:09:30.522Z,65.73
2018-03-03T18:12:00.282Z,68.50
2018-03-03T18:14:30.085Z,66.37
2018-03-03T18:16:59.798Z,67.33
2018-03-03T18:19:30.486Z,67.90
2018-03-03T18:22:00.326Z,64.17
2018-03-03T18:24:36.931Z,64.23
2018-03-03T18:27:06.760Z,59.83
2018-03-03T18:29:36.677Z,58.97
2018-03-03T18:32:06.409Z,58.03
2018-03-03T18:34:36.176Z,53.83
2018-03-03T18:37:05.948Z,52.17
2018-03-03T18:39:35.701Z,52.00
2018-03-03T18:42:05.485Z,50.03
2018-03-03T18:44:35.243Z,49.57
2018-03-03T18:47:05.059Z,47.83
2018-03-03T18:49:34.812Z,47.20
2018-03-03T18:52:04.657Z,48.77
2018-03-03T18:54:34.513Z,47.83
2018-03-03T18:57:04.256Z,43.87
2018-03-03T18:59:34.004Z,43.03
2018-03-03T19:02:03.797Z,41.13
2018-03-03T19:04:33.534Z,42.33
2018-03-03T19:07:03.284Z,43.50
2018-03-03T19:09:33.125Z,42.17
2018-03-03T19:12:02.979Z,39.13
2018-03-03T19:14:32.814Z,32.37
2018-03-03T19:17:02.494Z,32.53
2018-03-03T19:19:32.239Z,33.60
2018-03-03T19:22:02.065Z,31.47
2018-03-03T19:24:31.843Z,32.97
2018-03-03T19:27:01.623Z,33.00
2018-03-03T19:29:31.370Z,28.80
2018-03-03T19:32:01.096Z,25.37
2018-03-03T19:34:30.912Z,25.40
2018-03-03T19:37:00.622Z,26.40
2018-03-03T19:39:30.356Z,25.97
2018-03-03T19:42:00.167Z,27.27
2018-03-03T19:44:29.909Z,28.23
2018-03-03T19:46:59.653Z,28.23
2018-03-03T19:49:29.450Z,28.83
2018-03-03T19:51:59.342Z,28.23
2018-03-03T19:54:29.122Z,28.10
2018-03-03T19:56:58.884Z,28.13
2018-03-03T19:59:28.649Z,26.57
2018-03-03T20:01:58.401Z,26.13
2018-03-03T20:04:28.328Z,26.53
2018-03-03T20:06:58.071Z,25.67
2018-03-03T20:09:27.768Z,26.23
2018-03-03T20:11:57.579Z,24.50
2018-03-03T20:14:27.377Z,25.63
2018-03-03T20:16:57.144Z,23.63
2018-03-03T20:19:26.916Z,23.87
2018-03-03T20:21:56.865Z,23.43
2018-03-03T20:24:26.639Z,22.00
2018-03-03T20:26:56.362Z,23.73
2018-03-03T20:29:26.192Z,25.00
2018-03-03T20:31:56.060Z,24.00
2018-03-03T20:34:25.876Z,24.97
2018-03-03T20:36:55.588Z,24.10
2018-03-03T20:39:25.385Z,21.50
2018-03-03T20:41:55.182Z,21.60
2018-03-03T20:44:24.949Z,25.07
2018-03-03T20:46:54.701Z,27.90
2018-03-03T20:49:24.470Z,30.13
2018-03-03T20:51:54.179Z,30.07
2018-03-03T20:54:24.041Z,27.80
2018-03-03T20:56:53.759Z,28.97
2018-03-03T20:59:23.453Z,28.20
2018-03-03T21:01:53.309Z,26.93
2018-03-03T21:04:23.108Z,25.37
2018-03-03T21:06:52.806Z,27.67
2018-03-03T21:09:22.577Z,27.57
2018-03-03T21:11:55.030Z,29.83
2018-03-03T21:14:24.869Z,30.07
2018-03-03T21:16:54.596Z,28.63
2018-03-03T21:19:24.329Z,28.50
2018-03-03T21:21:54.195Z,26.73
2018-03-03T21:24:23.973Z,28.90
2018-03-03T21:26:53.666Z,27.87
2018-03-03T21:29:23.467Z,23.40
2018-03-03T21:31:53.217Z,22.93
2018-03-03T21:34:22.996Z,24.60
2018-03-03T21:36:52.740Z,22.37
2018-03-03T21:39:22.452Z,22.37
2018-03-03T21:41:52.238Z,23.17
2018-03-03T21:44:22.156Z,22.67
2018-03-03T21:46:51.968Z,22.90
2018-03-03T21:49:21.688Z,22.97
2018-03-03T21:51:51.460Z,21.70
2018-03-03T21:54:21.267Z,22.63
2018-03-03T21:56:50.983Z,22.67
2018-03-03T21:59:20.800Z,23.73
2018-03-03T22:01:50.596Z,34.97
2018-03-03T22:04:20.334Z,23.33
2018-03-03T22:06:50.078Z,28.50
2018-03-03T22:09:19.873Z,23.40
2018-03-03T22:11:49.622Z,24.90
2018-03-03T22:14:19.420Z,26.03
2018-03-03T22:16:49.144Z,28.47
2018-03-03T22:19:18.914Z,30.47
2018-03-03T22:21:48.707Z,27.97
2018-03-03T22:24:18.516Z,31.37
2018-03-03T22:26:48.350Z,27.20
2018-03-03T22:29:18.090Z,26.17
2018-03-03T22:31:47.870Z,27.27
2018-03-03T22:34:17.749Z,25.83
2018-03-03T22:36:47.499Z,29.20
2018-03-03T22:39:17.296Z,28.20
2018-03-03T22:41:47.085Z,26.03
2018-03-03T22:44:16.886Z,24.00
2018-03-03T22:46:46.606Z,23.30
2018-03-03T22:49:16.336Z,23.20
2018-03-03T22:51:46.217Z,22.37
2018-03-03T22:54:16.008Z,20.77
2018-03-03T22:56:45.791Z,21.23
2018-03-03T22:59:15.525Z,19.73
2018-03-03T23:01:45.373Z,21.43
2018-03-03T23:04:15.243Z,20.50
2018-03-03T23:06:44.934Z,21.97
2018-03-03T23:09:14.784Z,22.27
2018-03-03T23:11:44.552Z,23.03
2018-03-03T23:14:14.296Z,21.30
2018-03-03T23:16:44.056Z,24.27
2018-03-03T23:19:13.786Z,26.83
2018-03-03T23:21:43.628Z,29.57
2018-03-03T23:24:13.450Z,25.63
2018-03-03T23:26:43.172Z,23.47
2018-03-03T23:29:13.057Z,22.30
2018-03-03T23:31:42.854Z,21.80
2018-03-03T23:34:12.761Z,23.80
2018-03-03T23:36:42.493Z,22.00
2018-03-03T23:39:12.227Z,24.13
2018-03-03T23:41:42.092Z,22.07
2018-03-03T23:44:11.936Z,22.80
2018-03-03T23:46:41.834Z,21.27
2018-03-03T23:49:11.571Z,20.13
2018-03-03T23:51:41.397Z,20.93
2018-03-03T23:54:11.189Z,21.93
2018-03-03T23:56:40.919Z,23.23
2018-03-03T23:59:10.723Z,24.80
